sensor_id;sensor_type;location;lat;lon;timestamp;P1;durP1;ratioP1;P2;durP2;ratioP2
22070;SDS011;11200;51.488;6.668;2023-02-01T04:47:45;11.07;;;3.40;;
22070;SDS011;11200;51.488;6.668;2023-02-01T04:50:13;10.93;;;3.53;;
22070;SDS011;11200;51.488;6.668;2023-02-01T04:52:38;10.80;;;3.85;;
22070;SDS011;11200;51.488;6.668;2023-02-01T04:55:04;11.70;;;3.58;;
22070;SDS011;11200;51.488;6.668;2023-02-01T04:57:34;13.75;;;3.67;;
22070;SDS011;11200;51.488;6.668;2023-02-01T05:00:20;15.20;;;4.07;;
22070;SDS011;11200;51.488;6.668;2023-02-01T05:02:54;14.60;;;4.00;;
22070;SDS011;11200;51.488;6.668;2023-02-01T05:06:02;15.48;;;4.47;;
22070;SDS011;11200;51.488;6.668;2023-02-01T05:09:25;15.73;;;3.90;;
22070;SDS011;11200;51.488;6.668;2023-02-01T05:11:58;15.40;;;4.45;;
22070;SDS011;11200;51.488;6.668;2023-02-01T05:14:42;12.40;;;4.15;;
22070;SDS011;11200;51.488;6.668;2023-02-01T05:17:08;12.75;;;3.95;;
22070;SDS011;11200;51.488;6.668;2023-02-01T05:19:34;11.40;;;3.83;;
22070;SDS011;11200;51.488;6.668;2023-02-01T05:22:00;11.80;;;3.42;;
22070;SDS011;11200;51.488;6.668;2023-02-01T05:24:28;11.45;;;3.83;;
22070;SDS011;11200;51.488;6.668;2023-02-01T05:26:56;11.63;;;3.60;;
22070;SDS011;11200;51.488;6.668;2023-02-01T05:29:25;11.48;;;3.17;;
22070;SDS011;11200;51.488;6.668;2023-02-01T05:31:51;12.07;;;3.65;;
22070;SDS011;11200;51.488;6.668;2023-02-01T05:34:17;14.57;;;4.28;;
22070;SDS011;11200;51.488;6.668;2023-02-01T05:36:43;10.48;;;3.50;;
22070;SDS011;11200;51.488;6.668;2023-02-01T05:39:08;11.80;;;3.95;;
22070;SDS011;11200;51.488;6.668;2023-02-01T05:41:35;14.57;;;3.80;;
22070;SDS011;11200;51.488;6.668;2023-02-01T05:44:01;10.02;;;3.08;;
22070;SDS011;11200;51.488;6.668;2023-02-01T05:46:27;14.02;;;3.40;;
22070;SDS011;11200;51.488;6.668;2023-02-01T05:48:53;15.18;;;4.00;;
22070;SDS011;11200;51.488;6.668;2023-02-01T05:51:19;8.73;;;3.00;;
22070;SDS011;11200;51.488;6.668;2023-02-01T05:53:44;11.52;;;3.45;;
22070;SDS011;11200;51.488;6.668;2023-02-01T05:56:10;14.63;;;3.83;;
22070;SDS011;11200;51.488;6.668;2023-02-01T05:58:36;15.93;;;4.07;;
22070;SDS011;11200;51.488;6.668;2023-02-01T06:01:02;13.18;;;3.63;;
22070;SDS011;11200;51.488;6.668;2023-02-01T06:03:28;11.45;;;3.58;;
22070;SDS011;11200;51.488;6.668;2023-02-01T06:05:54;13.25;;;3.97;;
22070;SDS011;11200;51.488;6.668;2023-02-01T06:08:20;12.80;;;3.95;;
22070;SDS011;11200;51.488;6.668;2023-02-01T06:10:45;11.88;;;3.08;;
22070;SDS011;11200;51.488;6.668;2023-02-01T06:13:11;13.27;;;4.07;;
22070;SDS011;11200;51.488;6.668;2023-02-01T06:15:36;13.48;;;3.58;;
22070;SDS011;11200;51.488;6.668;2023-02-01T06:18:02;12.25;;;3.40;;
22070;SDS011;11200;51.488;6.668;2023-02-01T06:20:29;14.50;;;3.40;;
22070;SDS011;11200;51.488;6.668;2023-02-01T06:22:55;10.32;;;3.38;;
22070;SDS011;11200;51.488;6.668;2023-02-01T06:25:23;12.82;;;3.88;;
22070;SDS011;11200;51.488;6.668;2023-02-01T06:27:49;9.70;;;3.67;;
22070;SDS011;11200;51.488;6.668;2023-02-01T06:30:14;12.95;;;3.55;;
22070;SDS011;11200;51.488;6.668;2023-02-01T06:32:41;13.23;;;3.80;;
22070;SDS011;11200;51.488;6.668;2023-02-01T06:35:07;13.18;;;3.90;;
22070;SDS011;11200;51.488;6.668;2023-02-01T06:37:36;13.63;;;4.25;;
22070;SDS011;11200;51.488;6.668;2023-02-01T06:40:03;13.75;;;4.13;;
22070;SDS011;11200;51.488;6.668;2023-02-01T06:42:29;13.07;;;4.32;;
22070;SDS011;11200;51.488;6.668;2023-02-01T06:44:54;14.52;;;3.58;;
22070;SDS011;11200;51.488;6.668;2023-02-01T06:47:20;15.85;;;4.55;;
22070;SDS011;11200;51.488;6.668;2023-02-01T06:49:46;11.75;;;3.97;;
22070;SDS011;11200;51.488;6.668;2023-02-01T06:52:11;12.98;;;3.67;;
22070;SDS011;11200;51.488;6.668;2023-02-01T06:54:37;14.18;;;3.65;;
22070;SDS011;11200;51.488;6.668;2023-02-01T06:57:03;14.73;;;3.92;;
22070;SDS011;11200;51.488;6.668;2023-02-01T06:59:28;14.13;;;3.95;;
22070;SDS011;11200;51.488;6.668;2023-02-01T07:01:54;14.27;;;3.63;;
22070;SDS011;11200;51.488;6.668;2023-02-01T07:04:20;12.93;;;3.53;;
22070;SDS011;11200;51.488;6.668;2023-02-01T07:06:45;11.18;;;3.83;;
22070;SDS011;11200;51.488;6.668;2023-02-01T07:09:11;11.35;;;3.85;;
22070;SDS011;11200;51.488;6.668;2023-02-01T07:11:38;14.13;;;3.83;;
22070;SDS011;11200;51.488;6.668;2023-02-01T07:14:08;15.40;;;4.65;;
22070;SDS011;11200;51.488;6.668;2023-02-01T07:16:34;14.70;;;4.10;;
22070;SDS011;11200;51.488;6.668;2023-02-01T07:19:00;12.73;;;4.10;;
22070;SDS011;11200;51.488;6.668;2023-02-01T07:21:26;11.70;;;3.72;;
22070;SDS011;11200;51.488;6.668;2023-02-01T07:23:53;12.73;;;3.63;;
22070;SDS011;11200;51.488;6.668;2023-02-01T07:26:19;13.05;;;4.05;;
22070;SDS011;11200;51.488;6.668;2023-02-01T07:28:44;15.68;;;4.13;;
22070;SDS011;11200;51.488;6.668;2023-02-01T07:31:12;15.35;;;3.75;;
22070;SDS011;11200;51.488;6.668;2023-02-01T07:33:46;15.63;;;4.22;;
22070;SDS011;11200;51.488;6.668;2023-02-01T07:36:14;13.82;;;3.95;;
22070;SDS011;11200;51.488;6.668;2023-02-01T07:38:41;17.42;;;4.15;;
22070;SDS011;11200;51.488;6.668;2023-02-01T07:41:07;14.48;;;3.92;;
22070;SDS011;11200;51.488;6.668;2023-02-01T07:43:34;14.10;;;3.88;;
22070;SDS011;11200;51.488;6.668;2023-02-01T07:46:00;14.07;;;4.20;;
22070;SDS011;11200;51.488;6.668;2023-02-01T07:48:27;15.43;;;3.80;;
22070;SDS011;11200;51.488;6.668;2023-02-01T07:53:29;10.20;;;3.80;;
22070;SDS011;11200;51.488;6.668;2023-02-01T07:55:55;12.73;;;3.80;;
22070;SDS011;11200;51.488;6.668;2023-02-01T07:58:22;15.13;;;3.90;;
22070;SDS011;11200;51.488;6.668;2023-02-01T08:00:48;13.77;;;3.90;;
22070;SDS011;11200;51.488;6.668;2023-02-01T08:03:32;14.32;;;4.00;;
22070;SDS011;11200;51.488;6.668;2023-02-01T08:05:58;16.65;;;4.03;;
22070;SDS011;11200;51.488;6.668;2023-02-01T08:08:23;17.40;;;4.13;;
22070;SDS011;11200;51.488;6.668;2023-02-01T08:10:49;15.13;;;4.55;;
22070;SDS011;11200;51.488;6.668;2023-02-01T08:13:15;15.27;;;4.25;;
22070;SDS011;11200;51.488;6.668;2023-02-01T08:15:41;14.75;;;4.07;;
22070;SDS011;11200;51.488;6.668;2023-02-01T08:18:07;15.00;;;4.57;;
22070;SDS011;11200;51.488;6.668;2023-02-01T08:20:34;16.90;;;4.38;;
22070;SDS011;11200;51.488;6.668;2023-02-01T08:23:01;16.58;;;4.13;;
22070;SDS011;11200;51.488;6.668;2023-02-01T08:25:27;16.58;;;4.18;;
22070;SDS011;11200;51.488;6.668;2023-02-01T08:27:53;15.68;;;4.50;;
22070;SDS011;11200;51.488;6.668;2023-02-01T08:30:20;13.15;;;4.22;;
22070;SDS011;11200;51.488;6.668;2023-02-01T08:32:46;11.80;;;3.95;;
22070;SDS011;11200;51.488;6.668;2023-02-01T08:35:12;11.30;;;4.22;;
22070;SDS011;11200;51.488;6.668;2023-02-01T08:37:38;12.93;;;4.20;;
22070;SDS011;11200;51.488;6.668;2023-02-01T08:40:04;12.98;;;4.65;;
22070;SDS011;11200;51.488;6.668;2023-02-01T08:42:30;14.65;;;4.25;;
22070;SDS011;11200;51.488;6.668;2023-02-01T08:45:14;15.38;;;4.55;;
22070;SDS011;11200;51.488;6.668;2023-02-01T08:47:40;13.18;;;4.43;;
22070;SDS011;11200;51.488;6.668;2023-02-01T08:50:05;14.43;;;3.83;;
22070;SDS011;11200;51.488;6.668;2023-02-01T08:52:32;13.60;;;3.85;;
22070;SDS011;11200;51.488;6.668;2023-02-01T08:54:57;12.38;;;4.25;;
22070;SDS011;11200;51.488;6.668;2023-02-01T08:57:23;13.45;;;4.13;;
22070;SDS011;11200;51.488;6.668;2023-02-01T08:59:48;18.42;;;4.75;;
22070;SDS011;11200;51.488;6.668;2023-02-01T09:02:14;14.38;;;4.22;;
22070;SDS011;11200;51.488;6.668;2023-02-01T09:04:41;15.48;;;4.22;;
22070;SDS011;11200;51.488;6.668;2023-02-01T09:07:07;15.45;;;4.35;;
22070;SDS011;11200;51.488;6.668;2023-02-01T09:09:33;12.68;;;4.00;;
22070;SDS011;11200;51.488;6.668;2023-02-01T09:11:59;16.38;;;5.03;;
22070;SDS011;11200;51.488;6.668;2023-02-01T09:14:25;15.50;;;4.50;;
22070;SDS011;11200;51.488;6.668;2023-02-01T09:16:51;18.80;;;5.38;;
22070;SDS011;11200;51.488;6.668;2023-02-01T09:19:16;17.15;;;4.18;;
22070;SDS011;11200;51.488;6.668;2023-02-01T09:21:42;16.80;;;4.47;;
22070;SDS011;11200;51.488;6.668;2023-02-01T09:24:09;16.02;;;4.28;;
22070;SDS011;11200;51.488;6.668;2023-02-01T09:26:36;12.70;;;4.03;;
22070;SDS011;11200;51.488;6.668;2023-02-01T09:29:02;14.02;;;5.15;;
22070;SDS011;11200;51.488;6.668;2023-02-01T09:31:28;13.73;;;4.13;;
22070;SDS011;11200;51.488;6.668;2023-02-01T09:33:54;12.55;;;3.85;;
22070;SDS011;11200;51.488;6.668;2023-02-01T09:36:20;11.48;;;4.07;;
22070;SDS011;11200;51.488;6.668;2023-02-01T09:38:46;15.30;;;4.45;;
22070;SDS011;11200;51.488;6.668;2023-02-01T09:41:23;15.23;;;4.65;;
22070;SDS011;11200;51.488;6.668;2023-02-01T09:47:01;14.05;;;4.53;;
22070;SDS011;11200;51.488;6.668;2023-02-01T09:49:31;13.90;;;4.15;;
22070;SDS011;11200;51.488;6.668;2023-02-01T09:52:01;16.08;;;4.35;;
22070;SDS011;11200;51.488;6.668;2023-02-01T09:54:39;16.20;;;4.15;;
22070;SDS011;11200;51.488;6.668;2023-02-01T09:57:19;14.75;;;4.70;;
22070;SDS011;11200;51.488;6.668;2023-02-01T10:00:03;13.95;;;4.22;;
22070;SDS011;11200;51.488;6.668;2023-02-01T10:02:32;10.20;;;3.80;;
22070;SDS011;11200;51.488;6.668;2023-02-01T10:05:02;16.10;;;4.65;;
22070;SDS011;11200;51.488;6.668;2023-02-01T10:07:40;14.40;;;4.40;;
22070;SDS011;11200;51.488;6.668;2023-02-01T10:13:05;14.68;;;4.28;;
22070;SDS011;11200;51.488;6.668;2023-02-01T10:26:24;15.48;;;4.20;;
22070;SDS011;11200;51.488;6.668;2023-02-01T10:28:58;12.98;;;4.28;;
22070;SDS011;11200;51.488;6.668;2023-02-01T10:31:26;16.42;;;4.20;;
22070;SDS011;11200;51.488;6.668;2023-02-01T10:33:56;16.20;;;4.82;;
22070;SDS011;11200;51.488;6.668;2023-02-01T10:36:41;11.48;;;3.83;;
22070;SDS011;11200;51.488;6.668;2023-02-01T10:39:47;14.55;;;4.60;;
22070;SDS011;11200;51.488;6.668;2023-02-01T10:42:14;16.33;;;4.60;;
22070;SDS011;11200;51.488;6.668;2023-02-01T10:44:42;14.18;;;4.75;;
22070;SDS011;11200;51.488;6.668;2023-02-01T10:47:10;15.80;;;4.65;;
22070;SDS011;11200;51.488;6.668;2023-02-01T10:52:12;15.07;;;4.57;;
22070;SDS011;11200;51.488;6.668;2023-02-01T10:54:48;17.67;;;4.50;;
22070;SDS011;11200;51.488;6.668;2023-02-01T10:59:54;14.77;;;3.80;;
22070;SDS011;11200;51.488;6.668;2023-02-01T11:02:29;12.30;;;4.03;;
22070;SDS011;11200;51.488;6.668;2023-02-01T11:07:37;17.75;;;4.88;;
22070;SDS011;11200;51.488;6.668;2023-02-01T11:10:05;14.27;;;4.65;;
22070;SDS011;11200;51.488;6.668;2023-02-01T11:12:33;12.05;;;4.13;;
22070;SDS011;11200;51.488;6.668;2023-02-01T11:15:20;12.90;;;4.10;;
22070;SDS011;11200;51.488;6.668;2023-02-01T11:17:48;14.88;;;4.07;;
22070;SDS011;11200;51.488;6.668;2023-02-01T11:20:40;13.63;;;4.38;;
22070;SDS011;11200;51.488;6.668;2023-02-01T11:23:11;11.27;;;4.00;;
22070;SDS011;11200;51.488;6.668;2023-02-01T11:25:55;14.07;;;4.20;;
22070;SDS011;11200;51.488;6.668;2023-02-01T11:28:27;14.45;;;4.30;;
22070;SDS011;11200;51.488;6.668;2023-02-01T11:31:01;10.23;;;3.75;;
22070;SDS011;11200;51.488;6.668;2023-02-01T11:33:30;13.10;;;4.25;;
22070;SDS011;11200;51.488;6.668;2023-02-01T11:36:00;14.40;;;3.80;;
22070;SDS011;11200;51.488;6.668;2023-02-01T11:38:38;13.85;;;3.85;;
22070;SDS011;11200;51.488;6.668;2023-02-01T11:41:13;12.07;;;4.20;;
22070;SDS011;11200;51.488;6.668;2023-02-01T11:43:58;12.85;;;4.35;;
22070;SDS011;11200;51.488;6.668;2023-02-01T11:46:29;11.00;;;4.15;;
22070;SDS011;11200;51.488;6.668;2023-02-01T11:48:57;13.98;;;4.45;;
22070;SDS011;11200;51.488;6.668;2023-02-01T11:52:10;9.60;;;3.80;;
22070;SDS011;11200;51.488;6.668;2023-02-01T11:54:56;12.90;;;3.47;;
22070;SDS011;11200;51.488;6.668;2023-02-01T12:05:19;15.10;;;4.10;;
22070;SDS011;11200;51.488;6.668;2023-02-01T12:10:43;14.80;;;4.00;;
22070;SDS011;11200;51.488;6.668;2023-02-01T12:13:28;10.60;;;3.97;;
22070;SDS011;11200;51.488;6.668;2023-02-01T12:27:38;13.38;;;4.18;;
22070;SDS011;11200;51.488;6.668;2023-02-01T12:30:18;11.13;;;4.05;;
22070;SDS011;11200;51.488;6.668;2023-02-01T12:38:44;9.43;;;2.92;;
22070;SDS011;11200;51.488;6.668;2023-02-01T12:44:18;10.90;;;2.78;;
22070;SDS011;11200;51.488;6.668;2023-02-01T12:49:45;12.40;;;3.53;;
22070;SDS011;11200;51.488;6.668;2023-02-01T12:57:42;14.68;;;3.30;;
22070;SDS011;11200;51.488;6.668;2023-02-01T13:00:20;12.13;;;3.05;;
22070;SDS011;11200;51.488;6.668;2023-02-01T13:05:28;9.40;;;3.00;;
22070;SDS011;11200;51.488;6.668;2023-02-01T13:08:22;9.73;;;3.28;;
22070;SDS011;11200;51.488;6.668;2023-02-01T13:10:58;15.00;;;3.88;;
22070;SDS011;11200;51.488;6.668;2023-02-01T13:13:37;11.95;;;3.08;;
22070;SDS011;11200;51.488;6.668;2023-02-01T13:21:56;11.07;;;3.13;;
22070;SDS011;11200;51.488;6.668;2023-02-01T13:26:59;14.38;;;3.25;;
22070;SDS011;11200;51.488;6.668;2023-02-01T13:29:26;11.70;;;3.38;;
22070;SDS011;11200;51.488;6.668;2023-02-01T13:32:41;14.68;;;3.30;;
22070;SDS011;11200;51.488;6.668;2023-02-01T13:40:44;12.45;;;3.40;;
22070;SDS011;11200;51.488;6.668;2023-02-01T13:45:42;12.43;;;3.42;;
22070;SDS011;11200;51.488;6.668;2023-02-01T13:48:17;11.38;;;2.95;;
22070;SDS011;11200;51.488;6.668;2023-02-01T13:50:56;11.05;;;2.90;;
22070;SDS011;11200;51.488;6.668;2023-02-01T13:55:56;12.10;;;3.30;;
22070;SDS011;11200;51.488;6.668;2023-02-01T13:58:31;13.00;;;3.28;;
22070;SDS011;11200;51.488;6.668;2023-02-01T14:03:49;10.88;;;3.50;;
22070;SDS011;11200;51.488;6.668;2023-02-01T14:19:24;10.48;;;2.85;;
22070;SDS011;11200;51.488;6.668;2023-02-01T14:24:49;12.30;;;3.15;;
22070;SDS011;11200;51.488;6.668;2023-02-01T14:27:20;9.20;;;2.70;;
22070;SDS011;11200;51.488;6.668;2023-02-01T14:29:51;10.35;;;2.97;;
22070;SDS011;11200;51.488;6.668;2023-02-01T14:32:26;15.32;;;3.25;;
22070;SDS011;11200;51.488;6.668;2023-02-01T14:34:59;10.65;;;3.05;;
22070;SDS011;11200;51.488;6.668;2023-02-01T14:37:28;9.48;;;3.20;;
22070;SDS011;11200;51.488;6.668;2023-02-01T14:53:04;11.57;;;2.67;;
22070;SDS011;11200;51.488;6.668;2023-02-01T14:58:19;13.70;;;3.30;;
22070;SDS011;11200;51.488;6.668;2023-02-01T15:00:52;11.52;;;3.17;;
22070;SDS011;11200;51.488;6.668;2023-02-01T15:03:32;10.73;;;3.20;;
22070;SDS011;11200;51.488;6.668;2023-02-01T15:06:17;8.82;;;2.90;;
22070;SDS011;11200;51.488;6.668;2023-02-01T15:08:57;10.52;;;3.17;;
22070;SDS011;11200;51.488;6.668;2023-02-01T15:14:46;10.38;;;3.20;;
22070;SDS011;11200;51.488;6.668;2023-02-01T15:17:28;9.75;;;3.05;;
22070;SDS011;11200;51.488;6.668;2023-02-01T15:20:00;8.43;;;2.85;;
22070;SDS011;11200;51.488;6.668;2023-02-01T15:22:29;10.80;;;3.17;;
22070;SDS011;11200;51.488;6.668;2023-02-01T15:24:57;11.93;;;3.40;;
22070;SDS011;11200;51.488;6.668;2023-02-01T15:27:24;10.90;;;3.30;;
22070;SDS011;11200;51.488;6.668;2023-02-01T15:29:50;15.73;;;3.83;;
22070;SDS011;11200;51.488;6.668;2023-02-01T15:32:30;9.63;;;3.25;;
22070;SDS011;11200;51.488;6.668;2023-02-01T15:34:57;12.20;;;3.33;;
22070;SDS011;11200;51.488;6.668;2023-02-01T15:37:25;10.35;;;2.88;;
22070;SDS011;11200;51.488;6.668;2023-02-01T15:42:37;9.50;;;3.33;;
22070;SDS011;11200;51.488;6.668;2023-02-01T15:45:17;13.77;;;3.25;;
22070;SDS011;11200;51.488;6.668;2023-02-01T15:47:48;11.40;;;3.30;;
22070;SDS011;11200;51.488;6.668;2023-02-01T15:50:15;9.75;;;2.90;;
22070;SDS011;11200;51.488;6.668;2023-02-01T15:52:45;9.35;;;2.97;;
22070;SDS011;11200;51.488;6.668;2023-02-01T15:58:13;10.90;;;3.10;;
22070;SDS011;11200;51.488;6.668;2023-02-01T16:00:46;11.90;;;3.63;;
22070;SDS011;11200;51.488;6.668;2023-02-01T16:03:47;8.80;;;2.90;;
22070;SDS011;11200;51.488;6.668;2023-02-01T16:08:54;8.80;;;3.10;;
22070;SDS011;11200;51.488;6.668;2023-02-01T16:11:40;11.25;;;3.47;;
22070;SDS011;11200;51.488;6.668;2023-02-01T16:14:11;12.82;;;3.20;;
22070;SDS011;11200;51.488;6.668;2023-02-01T16:16:37;12.15;;;3.42;;
22070;SDS011;11200;51.488;6.668;2023-02-01T16:19:03;14.45;;;3.58;;
22070;SDS011;11200;51.488;6.668;2023-02-01T16:21:28;10.57;;;3.13;;
22070;SDS011;11200;51.488;6.668;2023-02-01T16:23:54;13.00;;;3.35;;
22070;SDS011;11200;51.488;6.668;2023-02-01T16:26:19;12.48;;;3.13;;
22070;SDS011;11200;51.488;6.668;2023-02-01T16:28:45;9.98;;;2.95;;
22070;SDS011;11200;51.488;6.668;2023-02-01T16:31:12;10.80;;;3.17;;
22070;SDS011;11200;51.488;6.668;2023-02-01T16:33:49;11.98;;;3.35;;
22070;SDS011;11200;51.488;6.668;2023-02-01T16:36:15;12.20;;;3.03;;
22070;SDS011;11200;51.488;6.668;2023-02-01T16:38:42;13.57;;;3.30;;
22070;SDS011;11200;51.488;6.668;2023-02-01T16:41:12;13.07;;;3.75;;
22070;SDS011;11200;51.488;6.668;2023-02-01T16:43:39;11.75;;;3.30;;
22070;SDS011;11200;51.488;6.668;2023-02-01T16:46:04;12.93;;;3.65;;
22070;SDS011;11200;51.488;6.668;2023-02-01T16:48:35;15.25;;;3.78;;
22070;SDS011;11200;51.488;6.668;2023-02-01T16:51:08;12.85;;;3.53;;
22070;SDS011;11200;51.488;6.668;2023-02-01T16:53:37;14.73;;;3.30;;
22070;SDS011;11200;51.488;6.668;2023-02-01T16:58:39;13.32;;;3.40;;
22070;SDS011;11200;51.488;6.668;2023-02-01T17:01:07;12.43;;;3.30;;
22070;SDS011;11200;51.488;6.668;2023-02-01T17:03:35;10.88;;;3.05;;
22070;SDS011;11200;51.488;6.668;2023-02-01T17:06:00;10.50;;;2.83;;
22070;SDS011;11200;51.488;6.668;2023-02-01T17:08:34;11.93;;;3.25;;
22070;SDS011;11200;51.488;6.668;2023-02-01T17:11:01;12.13;;;3.38;;
22070;SDS011;11200;51.488;6.668;2023-02-01T17:13:28;11.57;;;2.85;;
22070;SDS011;11200;51.488;6.668;2023-02-01T17:16:04;11.98;;;2.88;;
22070;SDS011;11200;51.488;6.668;2023-02-01T17:18:37;13.57;;;3.28;;
22070;SDS011;11200;51.488;6.668;2023-02-01T17:21:04;11.15;;;2.97;;
22070;SDS011;11200;51.488;6.668;2023-02-01T17:23:30;13.52;;;2.92;;
22070;SDS011;11200;51.488;6.668;2023-02-01T17:25:57;11.23;;;3.05;;
22070;SDS011;11200;51.488;6.668;2023-02-01T17:28:23;11.45;;;3.15;;
22070;SDS011;11200;51.488;6.668;2023-02-01T17:30:49;9.90;;;3.10;;
22070;SDS011;11200;51.488;6.668;2023-02-01T17:35:55;12.98;;;3.33;;
22070;SDS011;11200;51.488;6.668;2023-02-01T17:38:21;12.70;;;3.55;;
22070;SDS011;11200;51.488;6.668;2023-02-01T17:40:48;8.57;;;3.20;;
22070;SDS011;11200;51.488;6.668;2023-02-01T17:43:15;12.85;;;3.05;;
22070;SDS011;11200;51.488;6.668;2023-02-01T17:45:51;10.23;;;3.22;;
22070;SDS011;11200;51.488;6.668;2023-02-01T17:48:19;12.32;;;3.63;;
22070;SDS011;11200;51.488;6.668;2023-02-01T17:50:47;13.63;;;3.67;;
22070;SDS011;11200;51.488;6.668;2023-02-01T17:53:22;11.27;;;3.30;;
22070;SDS011;11200;51.488;6.668;2023-02-01T17:55:49;14.10;;;3.72;;
22070;SDS011;11200;51.488;6.668;2023-02-01T17:58:16;13.18;;;3.53;;
22070;SDS011;11200;51.488;6.668;2023-02-01T18:00:42;10.02;;;3.45;;
22070;SDS011;11200;51.488;6.668;2023-02-01T18:03:23;12.80;;;3.22;;
22070;SDS011;11200;51.488;6.668;2023-02-01T18:05:51;11.75;;;3.20;;
22070;SDS011;11200;51.488;6.668;2023-02-01T18:08:19;10.35;;;3.20;;
22070;SDS011;11200;51.488;6.668;2023-02-01T18:10:47;12.30;;;3.03;;
22070;SDS011;11200;51.488;6.668;2023-02-01T18:13:14;12.30;;;3.65;;
22070;SDS011;11200;51.488;6.668;2023-02-01T18:15:39;15.32;;;3.40;;
22070;SDS011;11200;51.488;6.668;2023-02-01T18:18:05;11.13;;;3.58;;
22070;SDS011;11200;51.488;6.668;2023-02-01T18:20:31;9.98;;;3.47;;
22070;SDS011;11200;51.488;6.668;2023-02-01T18:22:58;11.40;;;3.08;;
22070;SDS011;11200;51.488;6.668;2023-02-01T18:25:26;11.27;;;3.78;;
22070;SDS011;11200;51.488;6.668;2023-02-01T18:27:54;12.10;;;3.30;;
22070;SDS011;11200;51.488;6.668;2023-02-01T18:30:21;13.40;;;3.40;;
22070;SDS011;11200;51.488;6.668;2023-02-01T18:32:48;11.88;;;3.60;;
22070;SDS011;11200;51.488;6.668;2023-02-01T18:35:19;11.48;;;3.47;;
22070;SDS011;11200;51.488;6.668;2023-02-01T18:37:46;13.27;;;3.28;;
22070;SDS011;11200;51.488;6.668;2023-02-01T18:40:19;11.60;;;3.45;;
22070;SDS011;11200;51.488;6.668;2023-02-01T18:42:47;12.77;;;3.97;;
22070;SDS011;11200;51.488;6.668;2023-02-01T18:45:17;10.55;;;3.10;;
22070;SDS011;11200;51.488;6.668;2023-02-01T18:47:48;12.18;;;3.40;;
22070;SDS011;11200;51.488;6.668;2023-02-01T18:50:14;11.70;;;3.30;;
22070;SDS011;11200;51.488;6.668;2023-02-01T18:52:41;11.45;;;3.10;;
22070;SDS011;11200;51.488;6.668;2023-02-01T18:55:07;13.43;;;3.67;;
22070;SDS011;11200;51.488;6.668;2023-02-01T18:57:33;11.35;;;3.45;;
22070;SDS011;11200;51.488;6.668;2023-02-01T18:59:59;10.23;;;3.35;;
22070;SDS011;11200;51.488;6.668;2023-02-01T19:02:25;12.73;;;3.65;;
22070;SDS011;11200;51.488;6.668;2023-02-01T19:04:51;13.77;;;3.80;;
22070;SDS011;11200;51.488;6.668;2023-02-01T19:07:17;11.07;;;3.30;;
22070;SDS011;11200;51.488;6.668;2023-02-01T19:09:43;10.85;;;3.70;;
22070;SDS011;11200;51.488;6.668;2023-02-01T19:12:09;11.52;;;3.58;;
22070;SDS011;11200;51.488;6.668;2023-02-01T19:14:34;10.55;;;3.30;;
22070;SDS011;11200;51.488;6.668;2023-02-01T19:17:00;12.98;;;3.83;;
22070;SDS011;11200;51.488;6.668;2023-02-01T19:19:25;14.57;;;3.42;;
22070;SDS011;11200;51.488;6.668;2023-02-01T19:21:51;9.57;;;2.90;;
22070;SDS011;11200;51.488;6.668;2023-02-01T19:24:17;13.45;;;3.38;;
22070;SDS011;11200;51.488;6.668;2023-02-01T19:26:43;10.65;;;3.13;;
22070;SDS011;11200;51.488;6.668;2023-02-01T19:29:09;8.65;;;2.97;;
22070;SDS011;11200;51.488;6.668;2023-02-01T19:31:35;11.73;;;3.10;;
22070;SDS011;11200;51.488;6.668;2023-02-01T19:34:01;11.73;;;3.33;;
22070;SDS011;11200;51.488;6.668;2023-02-01T19:36:26;10.18;;;3.55;;
22070;SDS011;11200;51.488;6.668;2023-02-01T19:38:52;13.45;;;3.42;;
22070;SDS011;11200;51.488;6.668;2023-02-01T19:41:18;9.07;;;2.97;;
22070;SDS011;11200;51.488;6.668;2023-02-01T19:43:44;10.45;;;2.95;;
22070;SDS011;11200;51.488;6.668;2023-02-01T19:46:10;10.70;;;3.35;;
22070;SDS011;11200;51.488;6.668;2023-02-01T19:48:36;13.07;;;3.63;;
22070;SDS011;11200;51.488;6.668;2023-02-01T19:51:02;14.93;;;4.00;;
22070;SDS011;11200;51.488;6.668;2023-02-01T19:53:28;9.55;;;3.40;;
22070;SDS011;11200;51.488;6.668;2023-02-01T19:55:55;13.30;;;3.72;;
22070;SDS011;11200;51.488;6.668;2023-02-01T19:58:22;11.15;;;3.50;;
22070;SDS011;11200;51.488;6.668;2023-02-01T20:00:51;9.27;;;3.05;;
22070;SDS011;11200;51.488;6.668;2023-02-01T20:03:18;12.25;;;3.17;;
22070;SDS011;11200;51.488;6.668;2023-02-01T20:05:44;13.15;;;3.05;;
22070;SDS011;11200;51.488;6.668;2023-02-01T20:08:09;9.98;;;3.05;;
22070;SDS011;11200;51.488;6.668;2023-02-01T20:10:35;9.25;;;2.40;;
22070;SDS011;11200;51.488;6.668;2023-02-01T20:13:06;8.65;;;2.58;;
22070;SDS011;11200;51.488;6.668;2023-02-01T20:15:31;9.73;;;2.78;;
22070;SDS011;11200;51.488;6.668;2023-02-01T20:17:57;7.20;;;2.28;;
22070;SDS011;11200;51.488;6.668;2023-02-01T20:20:22;7.75;;;2.20;;
22070;SDS011;11200;51.488;6.668;2023-02-01T20:22:48;5.85;;;2.10;;
22070;SDS011;11200;51.488;6.668;2023-02-01T20:25:14;6.20;;;2.25;;
22070;SDS011;11200;51.488;6.668;2023-02-01T20:27:39;5.88;;;2.20;;
22070;SDS011;11200;51.488;6.668;2023-02-01T20:30:05;4.65;;;1.88;;
22070;SDS011;11200;51.488;6.668;2023-02-01T20:32:31;4.82;;;1.85;;
22070;SDS011;11200;51.488;6.668;2023-02-01T20:34:57;4.35;;;1.90;;
22070;SDS011;11200;51.488;6.668;2023-02-01T20:37:22;6.03;;;2.20;;
22070;SDS011;11200;51.488;6.668;2023-02-01T20:39:48;3.55;;;2.00;;
22070;SDS011;11200;51.488;6.668;2023-02-01T20:42:13;3.85;;;1.88;;
22070;SDS011;11200;51.488;6.668;2023-02-01T20:44:39;4.57;;;1.92;;
22070;SDS011;11200;51.488;6.668;2023-02-01T20:47:05;4.07;;;2.00;;
22070;SDS011;11200;51.488;6.668;2023-02-01T20:49:30;6.35;;;1.75;;
22070;SDS011;11200;51.488;6.668;2023-02-01T20:51:56;4.82;;;2.08;;
22070;SDS011;11200;51.488;6.668;2023-02-01T20:54:22;4.45;;;1.90;;
22070;SDS011;11200;51.488;6.668;2023-02-01T20:56:48;5.72;;;1.83;;
22070;SDS011;11200;51.488;6.668;2023-02-01T20:59:14;4.43;;;1.77;;
22070;SDS011;11200;51.488;6.668;2023-02-01T21:01:41;5.28;;;2.03;;
22070;SDS011;11200;51.488;6.668;2023-02-01T21:04:17;5.32;;;1.95;;
22070;SDS011;11200;51.488;6.668;2023-02-01T21:06:48;3.22;;;1.60;;
22070;SDS011;11200;51.488;6.668;2023-02-01T21:09:14;4.68;;;1.73;;
22070;SDS011;11200;51.488;6.668;2023-02-01T21:11:40;5.45;;;1.90;;
22070;SDS011;11200;51.488;6.668;2023-02-01T21:14:06;5.72;;;2.05;;
22070;SDS011;11200;51.488;6.668;2023-02-01T21:16:31;5.40;;;2.05;;
22070;SDS011;11200;51.488;6.668;2023-02-01T21:18:57;5.13;;;1.90;;
22070;SDS011;11200;51.488;6.668;2023-02-01T21:21:22;7.75;;;2.47;;
22070;SDS011;11200;51.488;6.668;2023-02-01T21:23:48;5.32;;;1.90;;
22070;SDS011;11200;51.488;6.668;2023-02-01T21:26:15;8.05;;;2.05;;
22070;SDS011;11200;51.488;6.668;2023-02-01T21:28:43;6.38;;;2.53;;
22070;SDS011;11200;51.488;6.668;2023-02-01T21:31:09;7.78;;;2.63;;
22070;SDS011;11200;51.488;6.668;2023-02-01T21:33:35;8.02;;;2.58;;
22070;SDS011;11200;51.488;6.668;2023-02-01T21:36:00;8.98;;;2.72;;
22070;SDS011;11200;51.488;6.668;2023-02-01T21:38:27;9.38;;;2.75;;
22070;SDS011;11200;51.488;6.668;2023-02-01T21:40:53;10.75;;;3.05;;
22070;SDS011;11200;51.488;6.668;2023-02-01T21:43:37;6.38;;;2.65;;
22070;SDS011;11200;51.488;6.668;2023-02-01T21:46:02;7.45;;;2.30;;
22070;SDS011;11200;51.488;6.668;2023-02-01T21:48:28;9.73;;;2.83;;
22070;SDS011;11200;51.488;6.668;2023-02-01T21:50:54;8.48;;;2.65;;
22070;SDS011;11200;51.488;6.668;2023-02-01T21:53:21;8.02;;;2.58;;
22070;SDS011;11200;51.488;6.668;2023-02-01T21:55:47;8.93;;;2.78;;
22070;SDS011;11200;51.488;6.668;2023-02-01T21:58:13;9.35;;;2.63;;